Waynesville, NC (28785)

5:13 AM EST on January 30, 2015 (GMT -0500)
WNC Landscaping- J.Creek | Change Station
CLOSE
Current Station
Personal Weather Station
Location: Waynesville, NC
Elevation: 2792 ft
Nearby Weather Stations
Active Advisory: Special Statement Active Notice: Local Storm Report

Elev 2792 ft 35.55 °N, 83.03 °W | Updated 1 second ago

Overcast
Overcast
32.4 °F
Feels Like 32 °F
N
0.0
Wind Variable Wind from West
Gusts 0.0 mph

Today
High -- | Low -- °F
--% Chance of Precip.
Yesterday
High -- | Low -- °F
Precip. -- in
7:33 AM 5:57 PM
Waxing Gibbous, 81% visible
Pressure 30.09 in
Visibility 9.0 miles
Clouds Few 1600 ft
Overcast 2200 ft
Windchill 32 °F
Dew Point 10 °F
Humidity 38%
Rainfall 0.00 in
Snow Depth Not available.
UV 0 out of 12
Pollen 1.30 out of 12
Air Quality Not available.
Flu Activity Not available.
METAR KAVL 300954Z AUTO 36014G24KT 9SM UP FEW016 OVC022 02/M03 A3008 RMK AO2 UPB51SNB38E51 SLP187 P0000 T00171028

More Conditions Fewer Conditions

Pressure 30.09 in
Visibility 9.0 miles
Clouds Few 1600 ft
Overcast 2200 ft
Windchill 32 °F
Dew Point 10 °F
Humidity 38%
Rainfall 0.00 in
Snow Depth Not available.
UV 0 out of 12
Pollen 1.30 out of 12
Air Quality Not available.
Flu Activity Not available.
METAR KAVL 300954Z AUTO 36014G24KT 9SM UP FEW016 OVC022 02/M03 A3008 RMK AO2 UPB51SNB38E51 SLP187 P0000 T00171028

More Conditions Fewer Conditions

10-Day Weather Forecast

Almanac

Astronomy

Jan. 30, 2015 Rise Set
Actual Time
Civil Twilight
Nautical Twilight
Astronomical Twilight
Moon
Length of Visible Light
Length of Day
Tomorrow will be .
, % of the Moon is Illuminated

Today's Extremes

State Highs State Lows

Community

WunderPhotos

Upload Photos

1,791,736 photos uploaded!

WunderBlogs® & News

Nearby

Air Quality

  Air Quality AQ Index Pollutant
Not available.

Snow Depth

Station Depth Elevation

Earthquake Activity

City Distance Mag. Time & Date
Minimum magnitude displayed is 2.5.

Coastal Water Temperatures

Place Temperature

Nearby Weather Stations